createdAt,value
2018-06-08T00:00:52.187Z,87.54
2018-06-08T00:03:21.680Z,87.62
2018-06-08T00:05:50.969Z,88.65
2018-06-08T00:08:20.355Z,88.59
2018-06-08T00:10:49.809Z,89.52
2018-06-08T00:13:19.174Z,87.92
2018-06-08T00:15:48.681Z,88.73
2018-06-08T00:18:17.927Z,89.02
2018-06-08T00:20:47.232Z,87.80
2018-06-08T00:23:16.523Z,87.16
2018-06-08T00:25:45.836Z,87.00
2018-06-08T00:28:14.914Z,86.97
2018-06-08T00:30:44.236Z,88.28
2018-06-08T00:33:13.685Z,89.06
2018-06-08T00:35:42.915Z,87.83
2018-06-08T00:38:12.224Z,88.14
2018-06-08T00:40:41.651Z,89.89
2018-06-08T00:43:10.992Z,90.90
2018-06-08T00:45:41.303Z,90.46
2018-06-08T00:48:10.686Z,89.40
2018-06-08T00:50:39.989Z,89.67
2018-06-08T00:53:09.393Z,90.13
2018-06-08T00:55:38.617Z,90.20
2018-06-08T00:58:07.962Z,89.67
2018-06-08T01:00:37.282Z,90.48
2018-06-08T01:03:06.746Z,89.97
2018-06-08T01:05:36.032Z,89.04
2018-06-08T01:08:05.378Z,89.01
2018-06-08T01:10:34.640Z,89.26
2018-06-08T01:13:04.006Z,88.29
2018-06-08T01:15:33.229Z,88.29
2018-06-08T01:18:02.648Z,89.23
2018-06-08T01:20:31.920Z,90.02
2018-06-08T01:23:01.384Z,89.63
2018-06-08T01:25:30.742Z,88.97
2018-06-08T01:27:59.971Z,88.81
2018-06-08T01:30:29.240Z,88.82
2018-06-08T01:32:58.503Z,89.77
2018-06-08T01:35:27.927Z,89.89
2018-06-08T01:37:57.346Z,90.60
2018-06-08T01:40:26.577Z,90.49
2018-06-08T01:42:55.884Z,90.34
2018-06-08T01:45:25.273Z,90.91
2018-06-08T01:47:54.790Z,89.99
2018-06-08T01:50:24.167Z,89.76
2018-06-08T01:52:53.600Z,91.15
2018-06-08T01:55:22.968Z,91.14
2018-06-08T01:57:52.432Z,90.91
2018-06-08T02:00:21.691Z,89.70
2018-06-08T02:02:51.041Z,90.41
2018-06-08T02:05:20.318Z,90.21
2018-06-08T02:07:49.757Z,89.56
2018-06-08T02:10:19.150Z,89.91
2018-06-08T02:12:48.437Z,89.96
2018-06-08T02:15:17.802Z,90.45
2018-06-08T02:17:47.221Z,91.21
2018-06-08T02:20:16.728Z,91.62
2018-06-08T02:22:46.449Z,91.96
2018-06-08T02:25:16.096Z,91.37
2018-06-08T02:27:45.495Z,91.45
2018-06-08T02:30:15.022Z,91.39
2018-06-08T02:32:44.387Z,91.80
2018-06-08T02:35:14.322Z,91.34
2018-06-08T02:37:44.562Z,90.68
2018-06-08T02:40:13.820Z,90.51
2018-06-08T02:42:43.085Z,90.92
2018-06-08T02:45:12.537Z,91.99
2018-06-08T02:47:41.988Z,92.08
2018-06-08T02:50:11.407Z,92.24
2018-06-08T02:52:40.848Z,92.35
2018-06-08T02:55:10.318Z,93.20
2018-06-08T02:57:39.943Z,94.49
2018-06-08T03:00:09.281Z,94.21
2018-06-08T03:02:38.729Z,93.29
2018-06-08T03:05:08.102Z,92.58
2018-06-08T03:07:37.669Z,92.83
2018-06-08T03:10:06.980Z,92.64
2018-06-08T03:12:36.223Z,92.51
2018-06-08T03:15:05.647Z,92.37
2018-06-08T03:17:35.002Z,92.61
2018-06-08T03:20:04.569Z,91.88
2018-06-08T03:22:33.988Z,92.31
2018-06-08T03:25:03.363Z,91.86
2018-06-08T03:27:32.878Z,92.36
2018-06-08T03:30:02.360Z,92.01
2018-06-08T03:32:31.824Z,92.50
2018-06-08T03:35:01.185Z,93.58
2018-06-08T03:37:30.605Z,93.39
2018-06-08T03:39:59.993Z,92.87
2018-06-08T03:42:29.485Z,92.38
2018-06-08T03:44:58.965Z,92.80
2018-06-08T03:47:28.332Z,92.60
2018-06-08T03:49:57.672Z,92.19
2018-06-08T03:52:29.231Z,91.91
2018-06-08T03:54:58.674Z,92.48
2018-06-08T03:57:28.140Z,92.42
2018-06-08T03:59:57.520Z,92.86
2018-06-08T04:02:26.755Z,91.16
2018-06-08T04:04:56.095Z,91.73
2018-06-08T04:07:25.397Z,93.39
2018-06-08T04:09:54.709Z,93.77
2018-06-08T04:12:24.086Z,93.87
2018-06-08T04:14:53.574Z,93.45
2018-06-08T04:17:23.386Z,93.00
2018-06-08T04:19:52.714Z,92.67
2018-06-08T04:22:22.027Z,92.59
2018-06-08T04:24:51.353Z,92.14
2018-06-08T04:27:20.758Z,92.14
2018-06-08T04:29:50.242Z,93.12
2018-06-08T04:32:19.717Z,93.20
2018-06-08T04:34:49.669Z,91.81
2018-06-08T04:37:19.001Z,92.36
2018-06-08T04:39:48.300Z,92.09
2018-06-08T04:42:17.643Z,92.24
2018-06-08T04:44:47.111Z,91.82
2018-06-08T04:47:16.531Z,92.29
2018-06-08T04:49:46.694Z,92.58
2018-06-08T04:52:16.146Z,92.50
2018-06-08T04:54:45.457Z,92.41
2018-06-08T04:57:14.972Z,92.23
2018-06-08T04:59:44.255Z,91.43
2018-06-08T05:02:14.564Z,91.98
2018-06-08T05:04:44.486Z,92.05
2018-06-08T05:07:14.584Z,91.25
2018-06-08T05:09:44.104Z,90.75
2018-06-08T05:12:14.787Z,91.14
2018-06-08T05:14:44.278Z,90.53
2018-06-08T05:17:13.665Z,89.13
2018-06-08T05:19:42.994Z,89.42
2018-06-08T05:22:12.379Z,89.40
2018-06-08T05:24:41.839Z,89.16
2018-06-08T05:27:11.139Z,87.79
2018-06-08T05:29:40.452Z,87.54
2018-06-08T05:32:09.746Z,84.73
2018-06-08T05:34:40.646Z,83.34
2018-06-08T05:37:09.977Z,83.71
2018-06-08T05:39:39.389Z,83.80
2018-06-08T05:42:08.836Z,82.79
2018-06-08T05:44:38.268Z,81.58
2018-06-08T05:47:07.638Z,80.06
2018-06-08T05:49:36.983Z,80.28
2018-06-08T05:52:06.426Z,78.45
2018-06-08T05:54:35.832Z,78.32
2018-06-08T05:57:05.385Z,77.84
2018-06-08T05:59:34.745Z,76.22
2018-06-08T06:02:04.105Z,74.59
2018-06-08T06:04:33.356Z,74.37
2018-06-08T06:07:03.488Z,73.66
2018-06-08T06:09:32.847Z,73.30
2018-06-08T06:12:02.169Z,71.03
2018-06-08T06:14:31.512Z,69.47
2018-06-08T06:17:01.101Z,73.07
2018-06-08T06:19:30.554Z,70.15
2018-06-08T06:21:59.948Z,71.19
2018-06-08T06:24:29.396Z,73.49
2018-06-08T06:26:58.973Z,72.43
2018-06-08T06:29:28.376Z,73.42
2018-06-08T06:31:57.627Z,73.45
2018-06-08T06:34:26.970Z,73.05
2018-06-08T06:36:56.770Z,73.68
2018-06-08T06:39:26.010Z,72.39
2018-06-08T06:41:55.447Z,69.78
2018-06-08T06:44:24.784Z,68.30
2018-06-08T06:46:53.996Z,65.91
2018-06-08T06:49:23.335Z,65.12
2018-06-08T06:51:52.844Z,66.01
2018-06-08T06:54:22.407Z,65.28
2018-06-08T06:56:51.920Z,64.69
2018-06-08T06:59:21.243Z,67.15
2018-06-08T07:01:50.737Z,67.76
2018-06-08T07:04:20.229Z,67.06
2018-06-08T07:06:50.510Z,64.46
2018-06-08T07:09:19.816Z,65.71
2018-06-08T07:11:49.493Z,65.99
2018-06-08T07:14:19.159Z,67.76
2018-06-08T07:16:48.576Z,67.78
2018-06-08T07:19:17.943Z,68.01
2018-06-08T07:21:47.151Z,67.09
2018-06-08T07:24:17.122Z,67.08
2018-06-08T07:26:46.512Z,66.31
2018-06-08T07:29:16.278Z,65.68
2018-06-08T07:31:45.704Z,63.85
2018-06-08T07:34:14.964Z,65.26
2018-06-08T07:36:44.345Z,65.78
2018-06-08T07:39:13.758Z,62.70
2018-06-08T07:41:42.880Z,65.70
2018-06-08T07:44:11.877Z,65.14
2018-06-08T07:46:41.479Z,63.78
2018-06-08T07:49:10.533Z,62.05
2018-06-08T07:51:39.641Z,59.50
2018-06-08T07:54:08.696Z,60.30
2018-06-08T07:56:37.795Z,58.85
2018-06-08T07:59:06.751Z,59.64
2018-06-08T08:01:35.810Z,58.71
2018-06-08T08:04:05.571Z,59.90
2018-06-08T08:06:34.626Z,55.61
2018-06-08T08:09:03.864Z,55.68
2018-06-08T08:11:32.947Z,53.23
2018-06-08T08:14:01.960Z,54.57
2018-06-08T08:16:31.250Z,55.04
2018-06-08T08:19:00.533Z,53.51
2018-06-08T08:21:29.585Z,54.83
2018-06-08T08:23:58.595Z,56.05
2018-06-08T08:26:27.644Z,57.76
2018-06-08T08:28:56.704Z,59.21
2018-06-08T08:31:25.808Z,55.58
2018-06-08T08:33:54.771Z,55.89
2018-06-08T08:36:23.787Z,59.04
2018-06-08T08:38:52.789Z,61.46
2018-06-08T08:41:21.850Z,62.03
2018-06-08T08:43:50.911Z,59.48
2018-06-08T08:46:21.089Z,61.46
2018-06-08T08:48:50.204Z,60.00
2018-06-08T08:51:19.295Z,58.07
2018-06-08T08:53:48.358Z,59.66
2018-06-08T08:56:17.453Z,58.83
2018-06-08T08:58:46.579Z,58.42
2018-06-08T09:01:15.638Z,56.93
2018-06-08T09:03:44.738Z,58.30
2018-06-08T09:06:13.766Z,59.38
2018-06-08T09:08:43.288Z,58.32
2018-06-08T09:11:12.294Z,58.78
2018-06-08T09:13:41.340Z,56.81
2018-06-08T09:16:10.532Z,57.23
2018-06-08T09:18:39.525Z,56.58
2018-06-08T09:21:08.515Z,56.42
2018-06-08T09:23:37.529Z,54.95
2018-06-08T09:26:06.801Z,57.60
2018-06-08T09:28:35.823Z,52.84
2018-06-08T09:31:04.751Z,54.08
2018-06-08T09:33:33.804Z,55.58
2018-06-08T09:36:02.835Z,54.20
2018-06-08T09:38:31.890Z,55.17
2018-06-08T09:41:00.936Z,54.99
2018-06-08T09:43:29.969Z,56.15
2018-06-08T09:45:58.960Z,55.38
2018-06-08T09:48:28.157Z,55.13
2018-06-08T09:50:57.157Z,54.67
2018-06-08T09:53:26.209Z,52.16
2018-06-08T09:55:55.281Z,52.95
2018-06-08T09:58:24.480Z,54.90
2018-06-08T10:00:53.594Z,52.42
2018-06-08T10:03:22.727Z,52.96
2018-06-08T10:05:51.716Z,52.08
2018-06-08T10:08:20.703Z,53.64
2018-06-08T10:10:49.754Z,50.37
2018-06-08T10:13:18.735Z,48.16
2018-06-08T10:15:47.792Z,48.16
2018-06-08T10:18:16.899Z,50.47
2018-06-08T10:20:45.964Z,50.11
2018-06-08T10:23:15.005Z,50.01
2018-06-08T10:25:44.052Z,50.57
2018-06-08T10:28:13.028Z,49.35
2018-06-08T10:30:42.182Z,49.76
2018-06-08T10:33:11.780Z,48.57
2018-06-08T10:35:40.756Z,49.98
2018-06-08T10:38:09.915Z,48.39
2018-06-08T10:40:39.889Z,47.75
2018-06-08T10:43:08.947Z,49.40
2018-06-08T10:45:37.889Z,50.69
2018-06-08T10:48:06.903Z,48.16
2018-06-08T10:50:36.035Z,49.00
2018-06-08T10:53:05.131Z,49.22
2018-06-08T10:55:35.064Z,47.71
2018-06-08T10:58:04.124Z,48.20
2018-06-08T11:00:33.144Z,48.16
2018-06-08T11:03:02.259Z,48.08
2018-06-08T11:05:32.247Z,47.51
2018-06-08T11:08:02.952Z,48.95
2018-06-08T11:10:32.151Z,47.65
2018-06-08T11:13:01.671Z,46.54
2018-06-08T11:15:31.896Z,46.25
2018-06-08T11:18:00.921Z,45.53
2018-06-08T11:20:30.173Z,47.01
2018-06-08T11:22:59.366Z,45.50
2018-06-08T11:25:28.555Z,46.08
2018-06-08T11:27:57.604Z,46.20
2018-06-08T11:30:27.073Z,44.66
2018-06-08T11:32:57.228Z,44.47
2018-06-08T11:35:26.838Z,43.77
2018-06-08T11:37:56.606Z,42.78
2018-06-08T11:40:26.047Z,44.11
2018-06-08T11:42:55.395Z,44.33
2018-06-08T11:45:24.798Z,44.03
2018-06-08T11:47:54.321Z,43.79
2018-06-08T11:50:23.932Z,38.20
2018-06-08T11:52:53.434Z,39.41
2018-06-08T11:55:23.298Z,37.63
2018-06-08T11:57:52.765Z,39.87
2018-06-08T12:00:23.464Z,41.02
2018-06-08T12:02:53.204Z,40.03
2018-06-08T12:05:22.669Z,41.04
2018-06-08T12:07:52.056Z,39.68
2018-06-08T12:10:21.512Z,39.46
2018-06-08T12:12:50.999Z,39.67
2018-06-08T12:15:20.685Z,39.23
2018-06-08T12:17:49.964Z,39.81
2018-06-08T12:20:19.348Z,39.50
2018-06-08T12:22:48.642Z,40.53
2018-06-08T12:25:18.073Z,37.47
2018-06-08T12:27:47.517Z,38.32
2018-06-08T12:30:16.816Z,41.03
2018-06-08T12:32:46.153Z,40.72
2018-06-08T12:35:15.499Z,38.51
2018-06-08T12:37:44.883Z,38.82
2018-06-08T12:40:14.911Z,40.66
2018-06-08T12:42:44.664Z,40.28
2018-06-08T12:45:14.001Z,37.88
2018-06-08T12:47:43.358Z,37.28
2018-06-08T12:50:12.724Z,38.08
2018-06-08T12:52:42.166Z,37.91
2018-06-08T12:55:12.642Z,39.45
2018-06-08T12:57:42.012Z,40.53
2018-06-08T13:00:11.554Z,37.53
2018-06-08T13:02:41.703Z,35.35
2018-06-08T13:05:11.006Z,33.13
2018-06-08T13:07:40.307Z,35.91
2018-06-08T13:10:09.548Z,35.87
2018-06-08T13:12:38.879Z,35.10
2018-06-08T13:15:08.190Z,35.35
2018-06-08T13:17:37.921Z,34.54
2018-06-08T13:20:07.292Z,33.98
2018-06-08T13:22:36.440Z,33.67
2018-06-08T13:25:05.920Z,35.65
2018-06-08T13:27:35.172Z,35.53
2018-06-08T13:30:04.506Z,35.57
2018-06-08T13:32:33.776Z,34.44
2018-06-08T13:35:03.119Z,36.60
2018-06-08T13:37:32.366Z,35.31
2018-06-08T13:40:01.682Z,36.52
2018-06-08T13:42:31.104Z,36.60
2018-06-08T13:45:00.469Z,39.60
2018-06-08T13:47:29.923Z,39.47
2018-06-08T13:49:59.188Z,38.52
2018-06-08T13:52:28.614Z,40.01
2018-06-08T13:54:58.008Z,40.10
2018-06-08T13:57:27.381Z,39.94
2018-06-08T13:59:56.813Z,36.47
2018-06-08T14:02:26.037Z,37.77
2018-06-08T14:04:55.485Z,39.99
2018-06-08T14:07:24.917Z,37.93
2018-06-08T14:09:54.339Z,37.58
2018-06-08T14:12:23.708Z,36.89
2018-06-08T14:14:53.112Z,37.38
2018-06-08T14:17:22.573Z,37.63
2018-06-08T14:19:53.569Z,37.98
2018-06-08T14:22:22.885Z,39.25
2018-06-08T14:24:52.183Z,40.73
2018-06-08T14:27:21.538Z,40.52
2018-06-08T14:29:50.997Z,40.62
2018-06-08T14:32:20.807Z,40.95
2018-06-08T14:34:50.376Z,38.95
2018-06-08T14:37:19.708Z,38.45
2018-06-08T14:39:48.977Z,39.16
2018-06-08T14:42:18.806Z,39.47
2018-06-08T14:44:48.251Z,37.91
2018-06-08T14:47:17.559Z,40.47
2018-06-08T14:49:47.060Z,36.22
2018-06-08T14:52:16.675Z,36.93
2018-06-08T14:54:46.004Z,36.86
2018-06-08T14:57:15.365Z,39.38
2018-06-08T14:59:44.729Z,39.35
2018-06-08T15:02:13.952Z,35.49
2018-06-08T15:04:43.374Z,39.05
2018-06-08T15:07:13.613Z,42.85
2018-06-08T15:09:43.648Z,45.21
2018-06-08T15:12:13.118Z,45.58
2018-06-08T15:14:42.751Z,46.85
2018-06-08T15:17:12.289Z,50.00
2018-06-08T15:19:41.980Z,47.12
2018-06-08T15:22:11.597Z,49.89
2018-06-08T15:24:41.194Z,49.30
2018-06-08T15:27:10.776Z,45.91
2018-06-08T15:29:40.052Z,44.65
2018-06-08T15:32:09.675Z,45.04
2018-06-08T15:34:39.091Z,45.30
2018-06-08T15:37:08.553Z,44.80
2018-06-08T15:39:37.952Z,44.86
2018-06-08T15:42:07.318Z,46.92
2018-06-08T15:44:36.794Z,48.28
2018-06-08T15:47:07.263Z,47.59
2018-06-08T15:49:37.477Z,50.10
2018-06-08T15:52:06.899Z,50.90
2018-06-08T15:54:37.281Z,51.97
2018-06-08T15:57:06.683Z,52.46
2018-06-08T15:59:35.943Z,52.87
2018-06-08T16:02:05.593Z,53.23
2018-06-08T16:04:35.638Z,54.48
2018-06-08T16:07:05.039Z,54.96
2018-06-08T16:09:34.469Z,53.93
2018-06-08T16:12:03.819Z,53.04
2018-06-08T16:14:33.074Z,53.76
2018-06-08T16:17:02.491Z,53.07
2018-06-08T16:19:31.877Z,52.81
2018-06-08T16:22:01.211Z,52.99
2018-06-08T16:24:30.455Z,53.82
2018-06-08T16:26:59.874Z,55.93
2018-06-08T16:29:29.334Z,56.20
2018-06-08T16:31:59.457Z,55.15
2018-06-08T16:34:28.749Z,55.89
2018-06-08T16:36:58.416Z,55.37
2018-06-08T16:39:27.826Z,56.41
2018-06-08T16:41:57.314Z,55.60
2018-06-08T16:44:26.878Z,53.51
2018-06-08T16:46:56.795Z,51.34
2018-06-08T16:49:25.983Z,54.44
2018-06-08T16:51:55.347Z,53.94
2018-06-08T16:54:25.551Z,54.47
2018-06-08T16:56:54.960Z,46.20
2018-06-08T16:59:24.283Z,42.99
2018-06-08T17:01:53.654Z,44.12
2018-06-08T17:04:22.943Z,42.23
2018-06-08T17:06:52.375Z,43.87
2018-06-08T17:09:21.866Z,42.93
2018-06-08T17:11:51.184Z,43.45
2018-06-08T17:14:20.436Z,44.71
2018-06-08T17:16:49.918Z,43.82
2018-06-08T17:19:19.356Z,44.37
2018-06-08T17:21:48.914Z,43.62
2018-06-08T17:24:18.343Z,43.61
2018-06-08T17:26:47.697Z,43.79
2018-06-08T17:29:18.165Z,44.96
2018-06-08T17:31:47.641Z,44.39
2018-06-08T17:34:16.894Z,45.87
2018-06-08T17:36:46.238Z,47.00
2018-06-08T17:39:15.613Z,47.70
2018-06-08T17:41:46.234Z,48.13
2018-06-08T17:44:15.763Z,48.49
2018-06-08T17:46:45.275Z,49.16
2018-06-08T17:49:14.754Z,51.34
2018-06-08T17:51:44.907Z,52.78
2018-06-08T17:54:14.359Z,53.66
2018-06-08T17:56:44.410Z,54.16
2018-06-08T17:59:13.634Z,55.08
2018-06-08T18:01:43.001Z,54.67
2018-06-08T18:04:12.797Z,58.58
2018-06-08T18:06:43.265Z,60.08
2018-06-08T18:09:12.657Z,62.05
2018-06-08T18:11:42.011Z,62.91
2018-06-08T18:14:12.125Z,63.75
2018-06-08T18:16:41.681Z,62.89
2018-06-08T18:19:11.002Z,63.22
2018-06-08T18:21:40.425Z,63.35
2018-06-08T18:24:10.439Z,64.56
2018-06-08T18:26:41.574Z,67.36
2018-06-08T18:29:10.692Z,69.08
2018-06-08T18:31:40.037Z,69.70
2018-06-08T18:34:09.651Z,70.60
2018-06-08T18:36:41.305Z,71.56
2018-06-08T18:39:10.741Z,71.77
2018-06-08T18:41:41.096Z,71.45
2018-06-08T18:44:10.666Z,74.33
2018-06-08T18:46:40.090Z,73.55
2018-06-08T18:49:10.106Z,75.10
2018-06-08T18:51:39.445Z,72.55
2018-06-08T18:54:08.802Z,74.17
2018-06-08T18:56:39.597Z,73.01
2018-06-08T18:59:09.169Z,73.38
2018-06-08T19:01:38.957Z,74.52
2018-06-08T19:04:08.440Z,75.41
2018-06-08T19:06:37.473Z,76.72
2018-06-08T19:09:10.381Z,77.56
2018-06-08T19:11:41.486Z,77.39
2018-06-08T19:14:11.502Z,77.28
2018-06-08T19:16:41.413Z,78.27
2018-06-08T19:19:12.830Z,77.82
2018-06-08T19:21:42.829Z,77.76
2018-06-08T19:24:13.742Z,75.41
2018-06-08T19:26:48.410Z,75.51
2018-06-08T19:29:18.671Z,76.18
2018-06-08T19:31:50.029Z,75.95
2018-06-08T19:34:19.792Z,75.05
2018-06-08T19:36:49.414Z,75.53
2018-06-08T19:39:19.772Z,75.91
2018-06-08T19:41:49.471Z,75.88
2018-06-08T19:44:18.873Z,75.58
2018-06-08T19:46:48.353Z,76.32
2018-06-08T19:49:18.114Z,77.91
2018-06-08T19:51:50.003Z,76.68
2018-06-08T19:54:19.610Z,77.53
2018-06-08T19:56:49.162Z,77.74
2018-06-08T19:59:18.614Z,77.39
2018-06-08T20:01:48.014Z,76.93
2018-06-08T20:04:17.577Z,77.97
2018-06-08T20:06:47.117Z,77.42
2018-06-08T20:09:16.469Z,77.29
2018-06-08T20:11:45.904Z,76.56
2018-06-08T20:14:14.957Z,75.84
2018-06-08T20:16:44.712Z,75.25
2018-06-08T20:19:14.057Z,76.32
2018-06-08T20:21:43.392Z,77.21
2018-06-08T20:24:12.834Z,78.17
2018-06-08T20:26:42.176Z,78.32
2018-06-08T20:29:11.620Z,77.05
2018-06-08T20:31:41.027Z,76.90
2018-06-08T20:34:10.549Z,77.57
2018-06-08T20:36:39.912Z,79.28
2018-06-08T20:39:09.454Z,80.24
2018-06-08T20:41:39.781Z,79.58
2018-06-08T20:44:09.286Z,78.60
2018-06-08T20:46:38.693Z,77.73
2018-06-08T20:49:08.015Z,77.69
2018-06-08T20:51:37.308Z,77.70
2018-06-08T20:54:06.938Z,78.01
2018-06-08T20:56:36.507Z,77.73
2018-06-08T20:59:05.968Z,78.33
2018-06-08T21:01:35.437Z,78.35
2018-06-08T21:04:04.820Z,80.04
2018-06-08T21:06:34.264Z,78.43
2018-06-08T21:09:04.961Z,77.75
2018-06-08T21:11:35.335Z,77.76
2018-06-08T21:14:04.557Z,78.98
2018-06-08T21:16:33.858Z,80.44
2018-06-08T21:19:03.120Z,80.09
2018-06-08T21:21:32.426Z,80.45
2018-06-08T21:24:01.684Z,78.34
2018-06-08T21:26:31.206Z,78.69
2018-06-08T21:29:00.576Z,78.22
2018-06-08T21:31:30.043Z,78.55
2018-06-08T21:33:59.484Z,78.81
2018-06-08T21:36:28.809Z,78.41
2018-06-08T21:38:59.154Z,80.89
2018-06-08T21:41:28.403Z,80.52
2018-06-08T21:43:57.803Z,81.55
2018-06-08T21:46:27.308Z,80.75
2018-06-08T21:48:56.789Z,79.98
2018-06-08T21:51:26.080Z,80.06
2018-06-08T21:53:55.371Z,80.17
2018-06-08T21:56:24.670Z,79.57
2018-06-08T21:58:54.116Z,80.04
2018-06-08T22:01:23.690Z,80.22
2018-06-08T22:03:53.195Z,79.52
2018-06-08T22:06:22.724Z,79.46
2018-06-08T22:08:52.273Z,79.86
2018-06-08T22:11:21.731Z,79.59
2018-06-08T22:13:51.277Z,79.72
2018-06-08T22:16:20.715Z,79.58
2018-06-08T22:18:50.126Z,80.59
2018-06-08T22:21:19.527Z,81.26
2018-06-08T22:23:48.869Z,80.16
2018-06-08T22:26:18.480Z,81.56
2018-06-08T22:28:47.781Z,81.14
2018-06-08T22:31:17.230Z,79.91
2018-06-08T22:33:46.582Z,81.20
2018-06-08T22:36:15.941Z,80.95
2018-06-08T22:38:45.190Z,79.85
2018-06-08T22:41:14.539Z,81.40
2018-06-08T22:43:43.894Z,81.07
2018-06-08T22:46:13.215Z,80.89
2018-06-08T22:48:42.481Z,80.56
2018-06-08T22:51:11.490Z,80.78
2018-06-08T22:53:40.837Z,81.28
2018-06-08T22:56:10.669Z,80.16
2018-06-08T22:58:39.657Z,80.37
2018-06-08T23:01:09.143Z,80.16
2018-06-08T23:03:38.131Z,81.29
2018-06-08T23:06:07.184Z,81.66
2018-06-08T23:08:36.183Z,81.33
2018-06-08T23:11:05.373Z,80.18
2018-06-08T23:13:34.574Z,82.02
2018-06-08T23:16:03.661Z,82.50
2018-06-08T23:18:32.775Z,82.44
2018-06-08T23:21:01.845Z,83.64
2018-06-08T23:23:30.910Z,83.03
2018-06-08T23:26:00.014Z,83.28
2018-06-08T23:28:29.054Z,82.97
2018-06-08T23:30:58.053Z,82.52
2018-06-08T23:33:27.140Z,81.69
2018-06-08T23:35:56.235Z,82.13
2018-06-08T23:38:25.294Z,81.15
2018-06-08T23:40:54.338Z,81.87
2018-06-08T23:43:23.360Z,82.51
2018-06-08T23:45:52.396Z,83.15
2018-06-08T23:48:22.884Z,83.29
2018-06-08T23:50:51.919Z,84.28
2018-06-08T23:53:20.936Z,84.18
2018-06-08T23:55:49.952Z,84.58
2018-06-08T23:58:18.925Z,83.34
